sensor_id;sensor_type;location;lat;lon;timestamp;pressure;altitude;pressure_sealevel;temperature;humidity
23427;BME280;41148;45.420;10.952;2023-02-28T00:01:28;101320.41;;;5.56;45.26
23427;BME280;41148;45.420;10.952;2023-02-28T00:03:55;101319.50;;;5.42;45.14
23427;BME280;41148;45.420;10.952;2023-02-28T00:06:23;101311.53;;;5.30;45.08
23427;BME280;41148;45.420;10.952;2023-02-28T00:08:51;101315.03;;;5.21;45.84
23427;BME280;41148;45.420;10.952;2023-02-28T00:11:19;101337.06;;;5.26;45.36
23427;BME280;41148;45.420;10.952;2023-02-28T00:13:47;101332.63;;;5.17;45.60
23427;BME280;41148;45.420;10.952;2023-02-28T00:16:20;101332.56;;;5.11;45.33
23427;BME280;41148;45.420;10.952;2023-02-28T00:18:48;101329.97;;;5.13;45.53
23427;BME280;41148;45.420;10.952;2023-02-28T00:21:17;101340.53;;;5.13;45.64
23427;BME280;41148;45.420;10.952;2023-02-28T00:23:45;101330.91;;;5.27;45.82
23427;BME280;41148;45.420;10.952;2023-02-28T00:26:13;101322.97;;;5.29;45.60
23427;BME280;41148;45.420;10.952;2023-02-28T00:28:44;101342.38;;;5.34;45.21
23427;BME280;41148;45.420;10.952;2023-02-28T00:31:12;101337.06;;;5.28;45.37
23427;BME280;41148;45.420;10.952;2023-02-28T00:33:39;101332.56;;;5.11;45.57
23427;BME280;41148;45.420;10.952;2023-02-28T00:36:10;101344.09;;;5.21;45.88
23427;BME280;41148;45.420;10.952;2023-02-28T00:38:38;101339.66;;;5.18;45.64
23427;BME280;41148;45.420;10.952;2023-02-28T00:41:06;101339.69;;;5.26;45.79
23427;BME280;41148;45.420;10.952;2023-02-28T00:43:36;101334.34;;;5.11;46.13
23427;BME280;41148;45.420;10.952;2023-02-28T00:46:05;101354.63;;;5.16;45.91
23427;BME280;41148;45.420;10.952;2023-02-28T00:48:33;101347.53;;;5.06;45.88
23427;BME280;41148;45.420;10.952;2023-02-28T00:51:01;101348.41;;;5.07;46.04
23427;BME280;41148;45.420;10.952;2023-02-28T00:53:28;101337.84;;;5.02;46.09
23427;BME280;41148;45.420;10.952;2023-02-28T00:55:57;101356.28;;;4.96;46.20
23427;BME280;41148;45.420;10.952;2023-02-28T00:58:26;101348.38;;;5.01;46.15
23427;BME280;41148;45.420;10.952;2023-02-28T01:00:53;101353.66;;;4.99;46.44
23427;BME280;41148;45.420;10.952;2023-02-28T01:03:21;101351.88;;;4.95;46.66
23427;BME280;41148;45.420;10.952;2023-02-28T01:05:50;101360.69;;;4.97;46.81
23427;BME280;41148;45.420;10.952;2023-02-28T01:08:17;101358.88;;;4.88;47.02
23427;BME280;41148;45.420;10.952;2023-02-28T01:10:45;101362.47;;;5.00;46.73
23427;BME280;41148;45.420;10.952;2023-02-28T01:13:12;101362.44;;;4.94;46.94
23427;BME280;41148;45.420;10.952;2023-02-28T01:15:43;101373.91;;;4.97;46.99
23427;BME280;41148;45.420;10.952;2023-02-28T01:18:11;101377.41;;;4.98;46.89
23427;BME280;41148;45.420;10.952;2023-02-28T01:20:39;101383.59;;;5.01;47.00
23427;BME280;41148;45.420;10.952;2023-02-28T01:23:06;101385.34;;;4.99;47.48
23427;BME280;41148;45.420;10.952;2023-02-28T01:25:35;101384.44;;;4.96;47.00
23427;BME280;41148;45.420;10.952;2023-02-28T01:28:05;101375.66;;;4.95;47.21
23427;BME280;41148;45.420;10.952;2023-02-28T01:30:34;101377.34;;;4.88;47.18
23427;BME280;41148;45.420;10.952;2023-02-28T01:33:01;101373.81;;;4.83;47.24
23427;BME280;41148;45.420;10.952;2023-02-28T01:35:32;101372.91;;;4.80;47.66
23427;BME280;41148;45.420;10.952;2023-02-28T01:38:00;101373.78;;;4.79;47.59
23427;BME280;41148;45.420;10.952;2023-02-28T01:40:47;101374.72;;;4.85;47.56
23427;BME280;41148;45.420;10.952;2023-02-28T01:43:29;101375.53;;;4.81;47.66
23427;BME280;41148;45.420;10.952;2023-02-28T01:45:58;101372.88;;;4.77;47.76
23427;BME280;41148;45.420;10.952;2023-02-28T01:48:32;101372.88;;;4.74;47.92
23427;BME280;41148;45.420;10.952;2023-02-28T01:51:05;101376.44;;;4.82;47.78
23427;BME280;41148;45.420;10.952;2023-02-28T01:53:45;101370.19;;;4.72;48.05
23427;BME280;41148;45.420;10.952;2023-02-28T01:56:18;101368.47;;;4.74;48.16
23427;BME280;41148;45.420;10.952;2023-02-28T01:58:52;101371.06;;;4.67;48.08
23427;BME280;41148;45.420;10.952;2023-02-28T02:01:21;101376.34;;;4.73;48.10
23427;BME280;41148;45.420;10.952;2023-02-28T02:03:57;101375.47;;;4.72;47.83
23427;BME280;41148;45.420;10.952;2023-02-28T02:06:30;101371.97;;;4.72;47.82
23427;BME280;41148;45.420;10.952;2023-02-28T02:09:01;101349.06;;;4.66;47.80
23427;BME280;41148;45.420;10.952;2023-02-28T02:11:29;101359.56;;;4.62;47.89
23427;BME280;41148;45.420;10.952;2023-02-28T02:14:13;101363.16;;;4.67;47.61
23427;BME280;41148;45.420;10.952;2023-02-28T02:17:10;101355.22;;;4.64;47.99
23427;BME280;41148;45.420;10.952;2023-02-28T02:28:09;101359.69;;;4.81;47.84
23427;BME280;41148;45.420;10.952;2023-02-28T02:34:09;101352.66;;;4.79;47.92
23427;BME280;41148;45.420;10.952;2023-02-28T02:40:14;101357.97;;;4.83;47.47
23427;BME280;41148;45.420;10.952;2023-02-28T02:43:08;101350.94;;;4.84;47.68
23427;BME280;41148;45.420;10.952;2023-02-28T02:45:45;101340.38;;;4.87;47.21
23427;BME280;41148;45.420;10.952;2023-02-28T02:48:18;101357.06;;;4.78;47.50
23427;BME280;41148;45.420;10.952;2023-02-28T02:50:54;101359.69;;;4.81;47.94
23427;BME280;41148;45.420;10.952;2023-02-28T02:53:30;101350.91;;;4.82;47.80
23427;BME280;41148;45.420;10.952;2023-02-28T02:56:03;101355.28;;;4.76;48.06
23427;BME280;41148;45.420;10.952;2023-02-28T02:58:36;101338.56;;;4.80;47.69
23427;BME280;41148;45.420;10.952;2023-02-28T03:01:16;101346.50;;;4.81;47.52
23427;BME280;41148;45.420;10.952;2023-02-28T03:03:52;101345.59;;;4.76;47.84
23427;BME280;41148;45.420;10.952;2023-02-28T03:06:21;101341.25;;;4.83;48.05
23427;BME280;41148;45.420;10.952;2023-02-28T03:08:48;101352.72;;;4.89;47.63
23427;BME280;41148;45.420;10.952;2023-02-28T03:11:17;101349.19;;;4.92;47.62
23427;BME280;41148;45.420;10.952;2023-02-28T03:14:09;101352.78;;;5.02;47.84
23427;BME280;41148;45.420;10.952;2023-02-28T03:27:41;101351.00;;;4.99;47.46
23427;BME280;41148;45.420;10.952;2023-02-28T03:30:35;101345.78;;;5.08;47.46
23427;BME280;41148;45.420;10.952;2023-02-28T03:33:06;101349.28;;;5.03;47.70
23427;BME280;41148;45.420;10.952;2023-02-28T03:35:50;101351.00;;;4.98;47.69
23427;BME280;41148;45.420;10.952;2023-02-28T03:38:36;101346.59;;;4.97;47.65
23427;BME280;41148;45.420;10.952;2023-02-28T03:41:16;101351.00;;;5.01;47.53
23427;BME280;41148;45.420;10.952;2023-02-28T03:43:50;101356.28;;;4.98;47.83
23427;BME280;41148;45.420;10.952;2023-02-28T03:46:23;101356.28;;;4.95;47.52
23427;BME280;41148;45.420;10.952;2023-02-28T03:48:56;101357.97;;;4.83;47.97
23427;BME280;41148;45.420;10.952;2023-02-28T03:51:25;101366.78;;;4.84;47.89
23427;BME280;41148;45.420;10.952;2023-02-28T03:53:57;101356.22;;;4.87;47.90
23427;BME280;41148;45.420;10.952;2023-02-28T03:57:04;101357.19;;;5.00;47.79
23427;BME280;41148;45.420;10.952;2023-02-28T03:59:45;101363.34;;;4.97;47.93
23427;BME280;41148;45.420;10.952;2023-02-28T04:02:14;101368.50;;;4.76;48.36
23427;BME280;41148;45.420;10.952;2023-02-28T04:04:42;101364.91;;;4.71;48.41
23427;BME280;41148;45.420;10.952;2023-02-28T04:07:24;101368.44;;;4.71;48.58
23427;BME280;41148;45.420;10.952;2023-02-28T04:09:55;101357.75;;;4.53;48.95
23427;BME280;41148;45.420;10.952;2023-02-28T04:12:23;101357.72;;;4.48;49.21
23427;BME280;41148;45.420;10.952;2023-02-28T04:14:50;101390.28;;;4.50;49.18
23427;BME280;41148;45.420;10.952;2023-02-28T04:17:18;101385.91;;;4.52;49.38
23427;BME280;41148;45.420;10.952;2023-02-28T04:19:46;101378.78;;;4.44;49.06
23427;BME280;41148;45.420;10.952;2023-02-28T04:22:13;101376.19;;;4.45;49.15
23427;BME280;41148;45.420;10.952;2023-02-28T04:24:41;101388.44;;;4.37;49.46
23427;BME280;41148;45.420;10.952;2023-02-28T04:27:08;101378.84;;;4.50;48.96
23427;BME280;41148;45.420;10.952;2023-02-28T04:29:36;101392.09;;;4.54;48.83
23427;BME280;41148;45.420;10.952;2023-02-28T04:32:04;101381.53;;;4.54;48.90
23427;BME280;41148;45.420;10.952;2023-02-28T04:34:32;101398.34;;;4.69;48.86
23427;BME280;41148;45.420;10.952;2023-02-28T04:37:00;101391.25;;;4.62;48.71
23427;BME280;41148;45.420;10.952;2023-02-28T04:39:43;101396.50;;;4.57;48.71
23427;BME280;41148;45.420;10.952;2023-02-28T04:42:11;101395.63;;;4.61;48.96
23427;BME280;41148;45.420;10.952;2023-02-28T04:44:39;101392.03;;;4.50;49.29
23427;BME280;41148;45.420;10.952;2023-02-28T04:47:06;101381.47;;;4.47;49.29
23427;BME280;41148;45.420;10.952;2023-02-28T04:49:34;101378.75;;;4.39;49.60
23427;BME280;41148;45.420;10.952;2023-02-28T04:52:01;101385.00;;;4.49;49.54
23427;BME280;41148;45.420;10.952;2023-02-28T04:54:29;101395.63;;;4.61;49.43
23427;BME280;41148;45.420;10.952;2023-02-28T04:56:57;101380.53;;;4.42;49.52
23427;BME280;41148;45.420;10.952;2023-02-28T04:59:24;101390.25;;;4.46;49.58
23427;BME280;41148;45.420;10.952;2023-02-28T05:01:52;101386.75;;;4.47;49.65
23427;BME280;41148;45.420;10.952;2023-02-28T05:04:19;101394.72;;;4.54;49.52
23427;BME280;41148;45.420;10.952;2023-02-28T05:06:47;101393.88;;;4.57;49.64
23427;BME280;41148;45.420;10.952;2023-02-28T05:09:14;101401.75;;;4.54;49.16
23427;BME280;41148;45.420;10.952;2023-02-28T05:11:41;101396.59;;;4.69;49.43
23427;BME280;41148;45.420;10.952;2023-02-28T05:14:12;101390.50;;;4.79;48.95
23427;BME280;41148;45.420;10.952;2023-02-28T05:16:40;101387.84;;;4.73;49.15
23427;BME280;41148;45.420;10.952;2023-02-28T05:19:07;101385.19;;;4.73;48.85
23427;BME280;41148;45.420;10.952;2023-02-28T05:21:40;101391.31;;;4.72;48.77
23427;BME280;41148;45.420;10.952;2023-02-28T05:24:11;101380.69;;;4.62;48.28
23427;BME280;41148;45.420;10.952;2023-02-28T05:26:41;101385.97;;;4.60;48.21
23427;BME280;41148;45.420;10.952;2023-02-28T05:29:09;101378.03;;;4.62;48.62
23427;BME280;41148;45.420;10.952;2023-02-28T05:31:37;101385.22;;;4.76;48.37
23427;BME280;41148;45.420;10.952;2023-02-28T05:34:04;101387.72;;;4.61;48.68
23427;BME280;41148;45.420;10.952;2023-02-28T05:36:32;101390.47;;;4.75;48.43
23427;BME280;41148;45.420;10.952;2023-02-28T05:39:00;101391.38;;;4.78;48.24
23427;BME280;41148;45.420;10.952;2023-02-28T05:41:27;101374.56;;;4.66;48.28
23427;BME280;41148;45.420;10.952;2023-02-28T05:43:57;101382.38;;;4.53;48.44
23427;BME280;41148;45.420;10.952;2023-02-28T05:46:24;101396.44;;;4.49;48.62
23427;BME280;41148;45.420;10.952;2023-02-28T05:48:52;101387.66;;;4.53;48.78
23427;BME280;41148;45.420;10.952;2023-02-28T05:51:20;101382.38;;;4.52;48.30
23427;BME280;41148;45.420;10.952;2023-02-28T05:53:47;101390.28;;;4.52;48.50
23427;BME280;41148;45.420;10.952;2023-02-28T05:56:16;101388.53;;;4.51;48.59
23427;BME280;41148;45.420;10.952;2023-02-28T05:58:43;101396.50;;;4.60;48.49
23427;BME280;41148;45.420;10.952;2023-02-28T06:01:41;101400.88;;;4.55;48.28
23427;BME280;41148;45.420;10.952;2023-02-28T06:04:12;101394.66;;;4.47;48.68
23427;BME280;41148;45.420;10.952;2023-02-28T06:06:57;101399.09;;;4.51;48.61
23427;BME280;41148;45.420;10.952;2023-02-28T06:09:25;101400.91;;;4.61;48.56
23427;BME280;41148;45.420;10.952;2023-02-28T06:11:52;101400.84;;;4.53;48.78
23427;BME280;41148;45.420;10.952;2023-02-28T06:14:21;101411.41;;;4.52;48.83
23427;BME280;41148;45.420;10.952;2023-02-28T06:16:48;101409.63;;;4.46;49.15
23427;BME280;41148;45.420;10.952;2023-02-28T06:19:16;101423.72;;;4.51;48.88
23427;BME280;41148;45.420;10.952;2023-02-28T06:21:44;101415.72;;;4.44;48.95
23427;BME280;41148;45.420;10.952;2023-02-28T06:24:12;101423.78;;;4.60;48.62
23427;BME280;41148;45.420;10.952;2023-02-28T06:26:39;101431.69;;;4.59;48.89
23427;BME280;41148;45.420;10.952;2023-02-28T06:29:07;101421.13;;;4.59;48.78
23427;BME280;41148;45.420;10.952;2023-02-28T06:31:35;101432.59;;;4.63;49.30
23427;BME280;41148;45.420;10.952;2023-02-28T06:34:03;101422.09;;;4.66;49.00
23427;BME280;41148;45.420;10.952;2023-02-28T06:36:31;101414.03;;;4.53;48.97
23427;BME280;41148;45.420;10.952;2023-02-28T06:38:58;101427.28;;;4.58;48.99
23427;BME280;41148;45.420;10.952;2023-02-28T06:41:26;101428.19;;;4.60;48.92
23427;BME280;41148;45.420;10.952;2023-02-28T06:43:55;101417.63;;;4.58;49.60
23427;BME280;41148;45.420;10.952;2023-02-28T06:46:22;101423.84;;;4.65;48.93
23427;BME280;41148;45.420;10.952;2023-02-28T06:48:50;101431.72;;;4.62;49.16
23427;BME280;41148;45.420;10.952;2023-02-28T06:51:19;101450.25;;;4.67;49.05
23427;BME280;41148;45.420;10.952;2023-02-28T06:53:49;101450.31;;;4.74;48.77
23427;BME280;41148;45.420;10.952;2023-02-28T06:56:18;101437.94;;;4.69;48.92
23427;BME280;41148;45.420;10.952;2023-02-28T06:58:49;101446.88;;;4.83;48.55
23427;BME280;41148;45.420;10.952;2023-02-28T07:01:17;101434.63;;;4.94;48.36
23427;BME280;41148;45.420;10.952;2023-02-28T07:03:45;101436.31;;;4.84;48.84
23427;BME280;41148;45.420;10.952;2023-02-28T07:06:13;101435.50;;;4.99;48.59
23427;BME280;41148;45.420;10.952;2023-02-28T07:08:40;101436.47;;;5.10;48.70
23427;BME280;41148;45.420;10.952;2023-02-28T07:11:08;101447.97;;;5.18;48.40
23427;BME280;41148;45.420;10.952;2023-02-28T07:13:36;101445.31;;;5.17;48.22
23427;BME280;41148;45.420;10.952;2023-02-28T07:16:06;101449.72;;;5.16;47.97
23427;BME280;41148;45.420;10.952;2023-02-28T07:18:36;101441.84;;;5.24;47.76
23427;BME280;41148;45.420;10.952;2023-02-28T07:21:07;101438.31;;;5.22;48.08
23427;BME280;41148;45.420;10.952;2023-02-28T07:23:36;101446.31;;;5.34;47.94
23427;BME280;41148;45.420;10.952;2023-02-28T07:26:06;101443.63;;;5.25;48.10
23427;BME280;41148;45.420;10.952;2023-02-28T07:28:33;101441.84;;;5.29;47.78
23427;BME280;41148;45.420;10.952;2023-02-28T07:31:05;101451.66;;;5.50;47.53
23427;BME280;41148;45.420;10.952;2023-02-28T07:33:33;101449.94;;;5.59;46.82
23427;BME280;41148;45.420;10.952;2023-02-28T07:36:05;101445.56;;;5.60;47.05
23427;BME280;41148;45.420;10.952;2023-02-28T07:38:35;101448.16;;;5.51;47.59
23427;BME280;41148;45.420;10.952;2023-02-28T07:41:03;101445.53;;;5.54;47.21
23427;BME280;41148;45.420;10.952;2023-02-28T07:43:34;101443.84;;;5.71;46.72
23427;BME280;41148;45.420;10.952;2023-02-28T07:46:08;101451.97;;;6.35;45.01
23427;BME280;41148;45.420;10.952;2023-02-28T07:48:36;101442.28;;;6.54;44.39
23427;BME280;41148;45.420;10.952;2023-02-28T07:51:04;101443.13;;;6.25;44.86
23427;BME280;41148;45.420;10.952;2023-02-28T07:53:32;101442.22;;;6.13;45.33
23427;BME280;41148;45.420;10.952;2023-02-28T07:56:01;101443.16;;;6.99;43.67
23427;BME280;41148;45.420;10.952;2023-02-28T07:58:30;101445.75;;;7.23;42.50
23427;BME280;41148;45.420;10.952;2023-02-28T08:01:05;101449.28;;;7.27;42.74
23427;BME280;41148;45.420;10.952;2023-02-28T08:03:33;101458.13;;;7.23;42.91
23427;BME280;41148;45.420;10.952;2023-02-28T08:06:07;101450.19;;;7.24;42.58
23427;BME280;41148;45.420;10.952;2023-02-28T08:08:35;101457.19;;;7.40;42.41
23427;BME280;41148;45.420;10.952;2023-02-28T08:11:03;101440.16;;;8.04;40.93
23427;BME280;41148;45.420;10.952;2023-02-28T08:13:30;101448.88;;;8.24;40.50
23427;BME280;41148;45.420;10.952;2023-02-28T08:16:01;101451.59;;;8.09;40.70
23427;BME280;41148;45.420;10.952;2023-02-28T08:18:29;101442.97;;;7.69;41.56
23427;BME280;41148;45.420;10.952;2023-02-28T08:20:56;101443.00;;;7.61;41.10
23427;BME280;41148;45.420;10.952;2023-02-28T08:23:24;101444.84;;;7.44;41.30
23427;BME280;41148;45.420;10.952;2023-02-28T08:25:56;101436.91;;;7.29;41.76
23427;BME280;41148;45.420;10.952;2023-02-28T08:28:23;101453.66;;;7.46;41.57
23427;BME280;41148;45.420;10.952;2023-02-28T08:30:54;101468.72;;;7.29;41.43
23427;BME280;41148;45.420;10.952;2023-02-28T08:33:23;101457.97;;;7.78;40.93
23427;BME280;41148;45.420;10.952;2023-02-28T08:35:54;101447.06;;;8.28;40.10
23427;BME280;41148;45.420;10.952;2023-02-28T08:38:23;101444.13;;;8.74;39.16
23427;BME280;41148;45.420;10.952;2023-02-28T08:40:58;101470.31;;;9.18;38.42
23427;BME280;41148;45.420;10.952;2023-02-28T08:43:26;101446.81;;;9.58;37.56
23427;BME280;41148;45.420;10.952;2023-02-28T08:45:57;101457.22;;;9.77;36.37
23427;BME280;41148;45.420;10.952;2023-02-28T08:48:26;101459.59;;;11.15;34.70
23427;BME280;41148;45.420;10.952;2023-02-28T08:51:08;101448.84;;;11.18;34.37
23427;BME280;41148;45.420;10.952;2023-02-28T08:53:36;101448.94;;;10.61;35.49
23427;BME280;41148;45.420;10.952;2023-02-28T08:56:15;101457.66;;;11.23;34.45
23427;BME280;41148;45.420;10.952;2023-02-28T08:58:44;101458.16;;;10.40;35.13
23427;BME280;41148;45.420;10.952;2023-02-28T09:03:44;101459.66;;;9.18;36.77
23427;BME280;41148;45.420;10.952;2023-02-28T09:09:17;101466.25;;;10.32;35.28
23427;BME280;41148;45.420;10.952;2023-02-28T09:11:45;101461.81;;;10.35;35.33
23427;BME280;41148;45.420;10.952;2023-02-28T09:14:12;101466.53;;;10.73;34.74
23427;BME280;41148;45.420;10.952;2023-02-28T09:16:39;101466.78;;;10.57;34.56
23427;BME280;41148;45.420;10.952;2023-02-28T09:19:10;101464.75;;;10.10;35.64
23427;BME280;41148;45.420;10.952;2023-02-28T09:21:39;101472.84;;;10.04;36.54
23427;BME280;41148;45.420;10.952;2023-02-28T09:24:07;101466.03;;;9.82;36.93
23427;BME280;41148;45.420;10.952;2023-02-28T09:26:34;101462.44;;;9.07;38.01
23427;BME280;41148;45.420;10.952;2023-02-28T09:29:09;101466.69;;;9.27;37.40
23427;BME280;41148;45.420;10.952;2023-02-28T09:31:38;101469.75;;;8.79;38.41
23427;BME280;41148;45.420;10.952;2023-02-28T09:34:05;101477.03;;;8.54;39.04
23427;BME280;41148;45.420;10.952;2023-02-28T09:36:34;101469.75;;;8.78;38.31
23427;BME280;41148;45.420;10.952;2023-02-28T09:39:12;101471.75;;;8.51;39.03
23427;BME280;41148;45.420;10.952;2023-02-28T09:41:44;101464.75;;;8.32;39.16
23427;BME280;41148;45.420;10.952;2023-02-28T09:44:35;101476.25;;;8.37;39.10
23427;BME280;41148;45.420;10.952;2023-02-28T09:47:21;101471.63;;;8.70;38.51
23427;BME280;41148;45.420;10.952;2023-02-28T09:49:54;101478.84;;;8.48;39.09
23427;BME280;41148;45.420;10.952;2023-02-28T09:52:29;101467.25;;;8.59;38.54
23427;BME280;41148;45.420;10.952;2023-02-28T09:55:20;101468.38;;;8.22;38.71
23427;BME280;41148;45.420;10.952;2023-02-28T09:57:49;101456.88;;;8.21;39.22
23427;BME280;41148;45.420;10.952;2023-02-28T10:00:23;101462.97;;;8.29;38.63
23427;BME280;41148;45.420;10.952;2023-02-28T10:05:33;101462.13;;;8.26;38.80
23427;BME280;41148;45.420;10.952;2023-02-28T10:08:15;101474.56;;;8.16;39.06
23427;BME280;41148;45.420;10.952;2023-02-28T10:10:48;101456.94;;;8.11;38.97
23427;BME280;41148;45.420;10.952;2023-02-28T10:16:02;101462.09;;;8.37;39.03
23427;BME280;41148;45.420;10.952;2023-02-28T10:18:40;101445.31;;;8.31;38.61
23427;BME280;41148;45.420;10.952;2023-02-28T10:21:40;101456.72;;;8.50;38.65
23427;BME280;41148;45.420;10.952;2023-02-28T10:24:32;101437.34;;;8.31;38.68
23427;BME280;41148;45.420;10.952;2023-02-28T10:27:13;101464.69;;;8.46;38.56
23427;BME280;41148;45.420;10.952;2023-02-28T10:29:46;101450.50;;;8.48;38.64
23427;BME280;41148;45.420;10.952;2023-02-28T10:32:30;101448.84;;;8.35;38.93
23427;BME280;41148;45.420;10.952;2023-02-28T10:35:16;101452.28;;;8.46;39.25
23427;BME280;41148;45.420;10.952;2023-02-28T10:37:49;101427.56;;;8.41;39.64
23427;BME280;41148;45.420;10.952;2023-02-28T10:43:02;101444.16;;;8.66;39.48
23427;BME280;41148;45.420;10.952;2023-02-28T10:45:35;101448.53;;;8.75;39.13
23427;BME280;41148;45.420;10.952;2023-02-28T10:48:30;101451.25;;;8.67;38.65
23427;BME280;41148;45.420;10.952;2023-02-28T10:50:59;101446.91;;;8.55;39.15
23427;BME280;41148;45.420;10.952;2023-02-28T10:53:33;101445.13;;;8.56;38.95
23427;BME280;41148;45.420;10.952;2023-02-28T10:56:23;101444.00;;;8.86;38.40
23427;BME280;41148;45.420;10.952;2023-02-28T10:59:02;101432.66;;;8.66;38.94
23427;BME280;41148;45.420;10.952;2023-02-28T11:03:58;101434.25;;;8.86;38.79
23427;BME280;41148;45.420;10.952;2023-02-28T11:06:33;101428.88;;;8.94;38.25
23427;BME280;41148;45.420;10.952;2023-02-28T11:09:50;101422.94;;;8.65;38.64
23427;BME280;41148;45.420;10.952;2023-02-28T11:14:58;101425.63;;;8.58;39.56
23427;BME280;41148;45.420;10.952;2023-02-28T11:17:30;101407.88;;;8.65;38.98
23427;BME280;41148;45.420;10.952;2023-02-28T11:20:10;101423.78;;;8.68;39.20
23427;BME280;41148;45.420;10.952;2023-02-28T11:22:45;101418.31;;;8.85;38.95
23427;BME280;41148;45.420;10.952;2023-02-28T11:25:24;101409.56;;;8.78;38.97
23427;BME280;41148;45.420;10.952;2023-02-28T11:27:55;101403.09;;;9.02;38.38
23427;BME280;41148;45.420;10.952;2023-02-28T11:30:28;101401.25;;;9.10;38.50
23427;BME280;41148;45.420;10.952;2023-02-28T11:32:56;101395.84;;;9.16;38.05
23427;BME280;41148;45.420;10.952;2023-02-28T11:35:39;101394.09;;;9.15;38.07
23427;BME280;41148;45.420;10.952;2023-02-28T11:38:11;101378.22;;;9.09;38.10
23427;BME280;41148;45.420;10.952;2023-02-28T11:41:05;101378.94;;;9.27;37.99
23427;BME280;41148;45.420;10.952;2023-02-28T11:46:33;101373.66;;;9.22;38.12
23427;BME280;41148;45.420;10.952;2023-02-28T11:49:26;101381.41;;;9.40;37.75
23427;BME280;41148;45.420;10.952;2023-02-28T11:52:02;101369.09;;;9.32;37.66
23427;BME280;41148;45.420;10.952;2023-02-28T12:00:32;101369.88;;;9.41;37.70
23427;BME280;41148;45.420;10.952;2023-02-28T12:03:26;101349.72;;;9.22;37.95
23427;BME280;41148;45.420;10.952;2023-02-28T12:06:03;101353.75;;;9.54;37.78
23427;BME280;41148;45.420;10.952;2023-02-28T12:20:08;101333.22;;;9.63;37.76
23427;BME280;41148;45.420;10.952;2023-02-28T12:25:43;101321.69;;;9.63;37.65
23427;BME280;41148;45.420;10.952;2023-02-28T12:28:20;101311.94;;;9.63;38.10
23427;BME280;41148;45.420;10.952;2023-02-28T12:30:59;101320.03;;;9.54;38.43
23427;BME280;41148;45.420;10.952;2023-02-28T12:33:38;101308.50;;;9.57;38.47
23427;BME280;41148;45.420;10.952;2023-02-28T12:36:11;101300.41;;;9.63;38.48
23427;BME280;41148;45.420;10.952;2023-02-28T12:38:41;101304.81;;;9.67;38.37
23427;BME280;41148;45.420;10.952;2023-02-28T12:41:33;101301.00;;;9.85;38.24
23427;BME280;41148;45.420;10.952;2023-02-28T12:44:09;101300.22;;;9.77;38.06
23427;BME280;41148;45.420;10.952;2023-02-28T12:46:41;101302.31;;;9.56;38.75
23427;BME280;41148;45.420;10.952;2023-02-28T12:49:17;101298.75;;;9.57;38.96
23427;BME280;41148;45.420;10.952;2023-02-28T12:51:47;101286.91;;;9.78;39.02
23427;BME280;41148;45.420;10.952;2023-02-28T12:54:35;101279.78;;;9.79;38.95
23427;BME280;41148;45.420;10.952;2023-02-28T12:57:13;101287.47;;;9.98;38.39
23427;BME280;41148;45.420;10.952;2023-02-28T12:59:51;101281.19;;;10.04;37.58
23427;BME280;41148;45.420;10.952;2023-02-28T13:05:06;101278.75;;;9.89;38.44
23427;BME280;41148;45.420;10.952;2023-02-28T13:10:51;101263.91;;;9.72;38.70
23427;BME280;41148;45.420;10.952;2023-02-28T13:13:24;101264.72;;;9.79;38.75
23427;BME280;41148;45.420;10.952;2023-02-28T13:18:42;101253.75;;;9.99;38.69
23427;BME280;41148;45.420;10.952;2023-02-28T13:21:26;101247.44;;;10.04;38.42
23427;BME280;41148;45.420;10.952;2023-02-28T13:24:00;101242.44;;;9.85;38.66
23427;BME280;41148;45.420;10.952;2023-02-28T13:31:31;101260.75;;;10.04;38.49
23427;BME280;41148;45.420;10.952;2023-02-28T13:34:11;101245.03;;;9.89;38.67
23427;BME280;41148;45.420;10.952;2023-02-28T13:36:39;101241.31;;;9.99;39.01
23427;BME280;41148;45.420;10.952;2023-02-28T13:47:34;101237.81;;;9.96;39.09
23427;BME280;41148;45.420;10.952;2023-02-28T13:56:03;101228.88;;;10.00;39.50
23427;BME280;41148;45.420;10.952;2023-02-28T13:58:48;101234.31;;;9.92;39.48
23427;BME280;41148;45.420;10.952;2023-02-28T14:01:39;101224.69;;;9.85;40.26
23427;BME280;41148;45.420;10.952;2023-02-28T14:07:23;101223.63;;;9.94;40.13
23427;BME280;41148;45.420;10.952;2023-02-28T14:09:57;101221.66;;;10.07;40.27
23427;BME280;41148;45.420;10.952;2023-02-28T14:12:56;101220.50;;;10.23;39.33
23427;BME280;41148;45.420;10.952;2023-02-28T14:18:03;101211.78;;;10.13;39.38
23427;BME280;41148;45.420;10.952;2023-02-28T14:20:33;101218.06;;;10.09;39.52
23427;BME280;41148;45.420;10.952;2023-02-28T14:23:06;101209.97;;;10.15;39.82
23427;BME280;41148;45.420;10.952;2023-02-28T14:25:49;101211.66;;;10.19;40.29
23427;BME280;41148;45.420;10.952;2023-02-28T14:31:13;101202.16;;;10.06;40.62
23427;BME280;41148;45.420;10.952;2023-02-28T14:36:32;101198.81;;;9.95;40.90
23427;BME280;41148;45.420;10.952;2023-02-28T14:39:05;101195.69;;;10.19;40.55
23427;BME280;41148;45.420;10.952;2023-02-28T14:41:35;101193.69;;;10.32;40.42
23427;BME280;41148;45.420;10.952;2023-02-28T14:46:49;101195.81;;;10.12;40.56
23427;BME280;41148;45.420;10.952;2023-02-28T14:51:44;101191.28;;;10.18;40.91
23427;BME280;41148;45.420;10.952;2023-02-28T14:54:15;101184.13;;;10.20;41.13
23427;BME280;41148;45.420;10.952;2023-02-28T14:56:43;101181.38;;;10.28;40.71
23427;BME280;41148;45.420;10.952;2023-02-28T14:59:25;101173.31;;;10.31;40.84
23427;BME280;41148;45.420;10.952;2023-02-28T15:02:14;101181.47;;;10.20;40.73
23427;BME280;41148;45.420;10.952;2023-02-28T15:04:42;101191.31;;;10.17;41.03
23427;BME280;41148;45.420;10.952;2023-02-28T15:07:14;101188.75;;;10.11;40.57
23427;BME280;41148;45.420;10.952;2023-02-28T15:09:42;101176.44;;;10.03;40.96